Hoffman, NC

4:37 PM EDT on July 26, 2016 (GMT -0400)
Mackall Army Air Field

Weather History for KHFF - October, 2012

Change the Weather History Date:

Tuesday, October 9, 2012

  Actual Average Record
Temperature  
Mean Temperature 52 °F -  
Max Temperature 57 °F 72 °F 95 °F (2007)
Min Temperature 48 °F 52 °F 44 °F (2001)
Degree Days  
Heating Degree Days 12    
Growing Degree Days 2 (Base 50)    
Moisture  
Dew Point 51 °F    
Average Humidity 93    
Maximum Humidity 100    
Minimum Humidity 82    
Precipitation  
Precipitation 0.01 in - - ()
Sea Level Pressure  
Sea Level Pressure 30.13 in    
Wind  
Wind Speed 7 mph (North)    
Max Wind Speed 10 mph    
Max Gust Speed -    
Visibility 9 miles    
Events Rain    
Averages and records for this station are not official NWS values.
T = Trace of Precipitation, MM = Missing Value Source: NWS Daily Summary

Daily Weather History Graph

Daily Weather History Graph

Search for Another Location

Airport or City:

Trip Planner

Search our weather history database for the weather conditions in past years. The results will help you decide how hot, cold, wet, or windy it might be!

Date:

Astronomy

Oct. 09, 2012 Rise Set
Actual Time 7:19 AM EDT 6:50 PM EDT
Civil Twilight 6:54 AM EDT 7:15 PM EDT
Nautical Twilight 6:24 AM EDT 7:44 PM EDT
Astronomical Twilight 5:55 AM EDT 8:14 PM EDT
Moon 1:07 AM EDT (10/9) 3:04 PM EDT (10/9)
Length of Visible Light 12h 21m
Length of Day
11h 30m
Last Quarter, 37% of the Moon is Illuminated
Oct 9
Last Quarter
Oct 15
New
Oct 21
First Quarter
Oct 29
Full
Nov 6
Last Quarter

Hourly Weather History & Observations

Time (EDT) Temp. Dew Point Humidity Pressure Visibility Wind Dir Wind Speed Gust Speed Precip Events Conditions
12:05 AM 48.2 °F 48.2 °F 100% 30.16 in 2.5 mi North 9.2 mph - N/A Rain Light Rain
12:20 AM 48.2 °F 48.2 °F 100% 30.16 in 3.0 mi North 6.9 mph - N/A   Light Drizzle
12:32 AM 48.2 °F 48.2 °F 100% 30.15 in 2.5 mi North 8.1 mph - N/A   Light Drizzle
12:50 AM 48.2 °F 48.2 °F 100% 30.15 in 3.0 mi North 9.2 mph - N/A   Light Drizzle
12:55 AM 48.6 °F 47.8 °F 97% 30.15 in 3.0 mi North 9.2 mph - 0.00 in   Light Drizzle
1:25 AM 48.2 °F 48.2 °F 100% 30.14 in 4.0 mi North 9.2 mph - N/A   Overcast
1:55 AM 48.6 °F 47.7 °F 97% 30.15 in 5.0 mi North 6.9 mph - N/A   Overcast
2:25 AM 48.2 °F 48.2 °F 100% 30.14 in 6.0 mi North 8.1 mph - N/A   Overcast
2:55 AM 48.6 °F 47.3 °F 95% 30.13 in 8.0 mi North 8.1 mph - N/A   Overcast
3:24 AM 48.2 °F 48.2 °F 100% 30.13 in 10.0 mi North 8.1 mph - N/A   Overcast
3:55 AM 48.6 °F 47.3 °F 95% 30.12 in 8.0 mi North 10.4 mph - N/A   Overcast
4:24 AM 48.2 °F 48.2 °F 100% 30.12 in 5.0 mi North 6.9 mph - N/A   Overcast
4:55 AM 48.6 °F 47.3 °F 95% 30.13 in 10.0 mi North 6.9 mph - N/A   Overcast
5:20 AM 48.2 °F 48.2 °F 100% 30.13 in 8.0 mi North 5.8 mph - N/A   Overcast
5:55 AM 48.6 °F 47.3 °F 95% 30.14 in 8.0 mi North 10.4 mph - N/A   Overcast
6:10 AM 48.2 °F 48.2 °F 100% 30.14 in 9.0 mi NNE 9.2 mph - N/A   Overcast
6:55 AM 48.7 °F 47.3 °F 95% 30.15 in 9.0 mi North 9.2 mph - N/A   Overcast
7:55 AM 48.9 °F 47.3 °F 94% 30.16 in 10.0 mi North 6.9 mph - N/A   Overcast
8:55 AM 49.3 °F 47.8 °F 95% 30.18 in 10.0 mi North 9.2 mph - N/A   Overcast
9:55 AM 49.8 °F 48.2 °F 94% 30.18 in 10.0 mi North 9.2 mph - N/A   Overcast
10:39 AM 50.0 °F 48.2 °F 94% 30.18 in 10.0 mi North 6.9 mph - N/A   Overcast
10:55 AM 50.7 °F 48.0 °F 90% 30.18 in 10.0 mi North 10.4 mph - N/A   Overcast
11:14 AM 51.8 °F 48.2 °F 88% 30.17 in 10.0 mi NNE 8.1 mph - N/A   Overcast
11:55 AM 52.0 °F 48.7 °F 89% 30.17 in 10.0 mi NNW 8.1 mph - N/A   Overcast
12:24 PM 53.6 °F 50.0 °F 88% 30.17 in 10.0 mi NNE 8.1 mph - N/A   Overcast
12:55 PM 53.6 °F 49.6 °F 86% 30.16 in 10.0 mi North 6.9 mph - N/A   Overcast
1:19 PM 55.4 °F 50.0 °F 82% 30.15 in 10.0 mi NNW 8.1 mph - N/A   Overcast
1:55 PM 55.8 °F 50.5 °F 83% 30.13 in 10.0 mi NNW 6.9 mph - N/A   Overcast
2:55 PM 55.8 °F 51.3 °F 85% 30.12 in 10.0 mi North 4.6 mph - N/A   Overcast
2:59 PM 55.4 °F 51.8 °F 88% 30.12 in 10.0 mi NNE 5.8 mph - N/A   Overcast
3:55 PM 57.0 °F 51.6 °F 82% 30.11 in 10.0 mi NNW 6.9 mph - N/A   Overcast
4:55 PM 56.7 °F 51.6 °F 83% 30.11 in 10.0 mi NNW 5.8 mph - N/A   Overcast
5:55 PM 56.3 °F 52.0 °F 85% 30.11 in 10.0 mi North 4.6 mph - N/A   Overcast
6:09 PM 57.2 °F 51.8 °F 82% 30.11 in 10.0 mi NNW 3.5 mph - N/A   Overcast
6:34 PM 55.4 °F 51.8 °F 88% 30.11 in 10.0 mi NNW 2.3 mph - N/A   Overcast
6:55 PM 55.9 °F 52.3 °F 88% 30.11 in 10.0 mi NNW 2.3 mph - N/A   Overcast
7:24 PM 55.4 °F 53.6 °F 94% 30.11 in 10.0 mi North 2.3 mph - N/A   Overcast
7:30 PM 55.4 °F 53.6 °F 94% 30.11 in 10.0 mi NNW 2.3 mph - N/A   Overcast
7:39 PM 55.4 °F 53.6 °F 94% 30.11 in 10.0 mi NNW 2.3 mph - N/A   Overcast
7:54 PM 55.4 °F 53.6 °F 94% 30.11 in 10.0 mi NNE 3.5 mph - N/A   Overcast
7:55 PM 55.4 °F 53.1 °F 92% 30.11 in 10.0 mi NE 3.5 mph - N/A   Overcast
8:14 PM 55.4 °F 53.6 °F 94% 30.12 in 10.0 mi NNE 3.5 mph - N/A   Overcast
8:24 PM 55.4 °F 53.6 °F 94% 30.12 in 10.0 mi NNE 2.3 mph - N/A   Overcast
8:29 PM 55.4 °F 53.6 °F 94% 30.12 in 10.0 mi NNE 2.3 mph - N/A   Overcast
8:44 PM 55.4 °F 53.6 °F 94% 30.12 in 10.0 mi NNE 2.3 mph - N/A   Overcast
8:55 PM 55.0 °F 52.9 °F 92% 30.12 in 10.0 mi NNE 2.3 mph - N/A   Overcast
9:23 PM 55.4 °F 53.6 °F 94% 30.12 in 10.0 mi NNE 2.3 mph - N/A   Overcast
9:43 PM 55.4 °F 53.6 °F 94% 30.12 in 10.0 mi North 2.3 mph - N/A   Overcast
9:49 PM 55.4 °F 53.6 °F 94% 30.12 in 10.0 mi NNW 2.3 mph - N/A   Overcast
9:55 PM 55.2 °F 53.1 °F 92% 30.13 in 9.0 mi North 1.2 mph - N/A   Overcast
9:59 PM 55.4 °F 53.6 °F 94% 30.13 in 9.0 mi North 1.2 mph - N/A   Overcast
10:14 PM 55.4 °F 53.6 °F 94% 30.13 in 10.0 mi WNW 2.3 mph - N/A   Overcast
10:38 PM 55.4 °F 53.6 °F 94% 30.13 in 10.0 mi West 2.3 mph - N/A   Overcast
10:43 PM 55.4 °F 53.6 °F 94% 30.13 in 10.0 mi West 3.5 mph - N/A   Overcast
10:48 PM 55.4 °F 53.6 °F 94% 30.13 in 10.0 mi West 3.5 mph - N/A   Overcast
10:55 PM 54.7 °F 53.1 °F 94% 30.12 in 10.0 mi West 3.5 mph - N/A   Overcast
11:55 PM 54.9 °F 53.2 °F 94% 30.12 in 9.0 mi West 2.3 mph - N/A   Overcast